createdAt,value
2023-03-18T00:01:16.362Z,25.60
2023-03-18T00:03:43.497Z,31.00
2023-03-18T00:06:16.768Z,29.40
2023-03-18T00:08:45.423Z,30.00
2023-03-18T00:11:14.345Z,26.00
2023-03-18T00:13:42.463Z,30.60
2023-03-18T00:16:11.547Z,29.20
2023-03-18T00:18:39.556Z,22.90
2023-03-18T00:21:06.564Z,27.70
2023-03-18T00:23:34.372Z,26.90
2023-03-18T00:26:02.526Z,21.70
2023-03-18T00:28:31.499Z,25.10
2023-03-18T00:31:08.805Z,22.30
2023-03-18T00:33:38.121Z,20.50
2023-03-18T00:36:07.184Z,20.20
2023-03-18T00:38:35.684Z,24.50
2023-03-18T00:41:11.245Z,20.00
2023-03-18T00:43:47.083Z,28.90
2023-03-18T00:46:20.802Z,24.80
2023-03-18T00:48:48.180Z,31.10
2023-03-18T00:51:17.364Z,25.60
2023-03-18T00:53:47.359Z,27.30
2023-03-18T00:56:15.941Z,30.10
2023-03-18T00:58:42.853Z,24.50
2023-03-18T01:01:10.281Z,30.20
2023-03-18T01:03:37.175Z,30.50
2023-03-18T01:06:04.313Z,31.00
2023-03-18T01:08:31.999Z,25.50
2023-03-18T01:10:59.533Z,27.70
2023-03-18T01:13:26.314Z,22.30
2023-03-18T01:15:54.517Z,19.60
2023-03-18T01:18:21.941Z,20.30
2023-03-18T01:20:48.833Z,21.00
2023-03-18T01:23:16.496Z,25.50
2023-03-18T01:25:45.132Z,21.40
2023-03-18T01:28:14.893Z,20.80
2023-03-18T01:30:42.328Z,22.70
2023-03-18T01:33:09.959Z,23.80
2023-03-18T01:35:37.523Z,21.60
2023-03-18T01:38:05.996Z,23.00
2023-03-18T01:40:35.972Z,22.80
2023-03-18T01:43:25.231Z,23.70
2023-03-18T01:45:55.133Z,22.20
2023-03-18T01:48:28.620Z,24.80
2023-03-18T01:51:05.952Z,24.60
2023-03-18T01:53:41.993Z,28.70
2023-03-18T01:56:09.203Z,30.90
2023-03-18T01:58:43.271Z,30.40
2023-03-18T02:01:34.826Z,34.10
2023-03-18T02:04:06.305Z,28.40
2023-03-18T02:06:33.549Z,32.40
2023-03-18T02:09:01.621Z,26.80
2023-03-18T02:11:32.735Z,32.70
2023-03-18T02:14:01.198Z,28.80
2023-03-18T02:16:36.958Z,27.90
2023-03-18T02:19:26.335Z,36.70
2023-03-18T02:22:02.420Z,35.20
2023-03-18T02:24:32.629Z,31.50
2023-03-18T02:27:05.882Z,36.50
2023-03-18T02:29:40.374Z,35.10
2023-03-18T02:32:13.143Z,36.40
2023-03-18T02:34:42.219Z,40.60
2023-03-18T02:37:09.300Z,46.20
2023-03-18T02:39:37.218Z,33.20
2023-03-18T02:42:04.306Z,30.80
2023-03-18T02:44:31.773Z,34.80
2023-03-18T02:47:22.878Z,36.80
2023-03-18T02:49:50.126Z,35.40
2023-03-18T02:52:16.962Z,39.10
2023-03-18T02:54:44.104Z,36.10
2023-03-18T02:57:10.974Z,32.80
2023-03-18T02:59:38.936Z,32.30
2023-03-18T03:02:06.574Z,35.30
2023-03-18T03:04:33.511Z,33.20
2023-03-18T03:07:01.636Z,38.90
2023-03-18T03:09:42.293Z,29.00
2023-03-18T03:12:09.347Z,37.20
2023-03-18T03:14:40.790Z,36.70
2023-03-18T03:17:07.584Z,33.60
2023-03-18T03:19:34.322Z,34.00
2023-03-18T03:22:01.604Z,36.30
2023-03-18T03:24:28.543Z,38.60
2023-03-18T03:26:55.275Z,35.30
2023-03-18T03:29:22.048Z,34.60
2023-03-18T03:31:49.479Z,30.60
2023-03-18T03:34:16.220Z,43.40
2023-03-18T03:36:43.185Z,39.90
2023-03-18T03:39:10.756Z,39.10
2023-03-18T03:41:37.538Z,33.40
2023-03-18T03:44:04.883Z,38.20
2023-03-18T03:46:32.207Z,34.80
2023-03-18T03:48:59.488Z,42.90
2023-03-18T03:51:26.321Z,40.10
2023-03-18T03:53:53.252Z,36.80
2023-03-18T03:56:20.070Z,40.30
2023-03-18T03:58:46.962Z,33.10
2023-03-18T04:01:14.068Z,43.70
2023-03-18T04:03:41.587Z,36.40
2023-03-18T04:06:08.625Z,35.00
2023-03-18T04:08:38.120Z,41.10
2023-03-18T04:11:05.567Z,41.10
2023-03-18T04:13:32.548Z,37.70
2023-03-18T04:15:59.470Z,37.30
2023-03-18T04:18:26.820Z,34.50
2023-03-18T04:20:54.248Z,35.90
2023-03-18T04:23:35.733Z,36.50
2023-03-18T04:26:02.816Z,43.30
2023-03-18T04:28:30.293Z,38.50
2023-03-18T04:30:57.355Z,45.30
2023-03-18T04:33:24.548Z,39.80
2023-03-18T04:35:52.737Z,39.40
2023-03-18T04:38:20.575Z,35.50
2023-03-18T04:40:49.319Z,37.50
2023-03-18T04:43:17.310Z,36.40
2023-03-18T04:45:45.690Z,33.10
2023-03-18T04:48:12.859Z,34.90
2023-03-18T04:50:41.104Z,34.80
2023-03-18T04:53:10.389Z,37.90
2023-03-18T04:55:37.936Z,33.30
2023-03-18T04:58:06.794Z,41.90
2023-03-18T05:00:38.169Z,36.00
2023-03-18T05:03:31.183Z,35.10
2023-03-18T05:05:58.280Z,37.80
2023-03-18T05:08:31.964Z,34.50
2023-03-18T05:11:00.228Z,32.70
2023-03-18T05:13:27.573Z,34.50
2023-03-18T05:15:54.998Z,42.00
2023-03-18T05:18:21.951Z,38.10
2023-03-18T05:20:49.876Z,41.20
2023-03-18T05:23:17.573Z,38.10
2023-03-18T05:25:50.457Z,35.00
2023-03-18T05:28:18.381Z,39.70
2023-03-18T05:30:52.493Z,30.40
2023-03-18T05:33:21.457Z,33.90
2023-03-18T05:35:53.067Z,32.90
2023-03-18T05:38:23.022Z,29.60
2023-03-18T05:40:50.099Z,32.70
2023-03-18T05:43:21.917Z,29.40
2023-03-18T05:45:51.773Z,28.30
2023-03-18T05:48:21.775Z,29.20
2023-03-18T05:50:52.482Z,29.40
2023-03-18T05:53:22.549Z,34.20
2023-03-18T05:55:53.030Z,42.40
2023-03-18T05:58:21.114Z,33.70
2023-03-18T06:00:50.632Z,40.20
2023-03-18T06:03:18.343Z,32.00
2023-03-18T06:05:45.173Z,38.70
2023-03-18T06:08:12.889Z,37.50
2023-03-18T06:10:40.302Z,37.40
2023-03-18T06:13:07.856Z,45.00
2023-03-18T06:15:34.788Z,35.80
2023-03-18T06:18:01.848Z,39.70
2023-03-18T06:20:28.921Z,41.00
2023-03-18T06:22:55.721Z,40.40
2023-03-18T06:25:24.074Z,36.70
2023-03-18T06:27:52.282Z,32.20
2023-03-18T06:30:21.582Z,39.40
2023-03-18T06:32:49.014Z,33.00
2023-03-18T06:35:16.684Z,35.60
2023-03-18T06:37:43.835Z,36.10
2023-03-18T06:40:12.388Z,37.00
2023-03-18T06:42:41.254Z,30.00
2023-03-18T06:45:15.436Z,30.40
2023-03-18T06:47:56.664Z,28.40
2023-03-18T06:50:24.586Z,26.90
2023-03-18T06:52:51.466Z,26.00
2023-03-18T06:55:23.955Z,34.90
2023-03-18T06:57:51.415Z,27.40
2023-03-18T07:00:24.788Z,25.70
2023-03-18T07:02:52.524Z,22.10
2023-03-18T07:05:22.998Z,21.60
2023-03-18T07:07:50.938Z,20.60
2023-03-18T07:10:21.929Z,22.00
2023-03-18T07:12:50.558Z,21.10
2023-03-18T07:15:21.777Z,21.50
2023-03-18T07:17:50.616Z,24.20
2023-03-18T07:20:18.771Z,22.80
2023-03-18T07:22:47.285Z,20.70
2023-03-18T07:25:14.610Z,25.00
2023-03-18T07:27:42.443Z,23.20
2023-03-18T07:30:10.011Z,27.40
2023-03-18T07:32:38.622Z,26.30
2023-03-18T07:35:06.741Z,26.30
2023-03-18T07:37:35.140Z,26.90
2023-03-18T07:40:04.010Z,24.00
2023-03-18T07:42:30.861Z,21.90
2023-03-18T07:44:58.186Z,22.10
2023-03-18T07:47:25.117Z,21.50
2023-03-18T07:49:55.028Z,19.10
2023-03-18T07:52:22.067Z,23.60
2023-03-18T07:54:48.815Z,20.50
2023-03-18T07:57:15.680Z,25.10
2023-03-18T07:59:42.552Z,23.80
2023-03-18T08:02:14.479Z,22.20
2023-03-18T08:04:42.886Z,23.80
2023-03-18T08:07:10.848Z,21.40
2023-03-18T08:09:38.474Z,20.10
2023-03-18T08:12:05.635Z,22.20
2023-03-18T08:14:32.548Z,19.70
2023-03-18T08:16:59.362Z,21.40
2023-03-18T08:19:27.603Z,21.80
2023-03-18T08:21:55.372Z,17.80
2023-03-18T08:24:32.169Z,24.20
2023-03-18T08:27:23.091Z,19.90
2023-03-18T08:29:54.047Z,23.50
2023-03-18T08:34:55.112Z,16.90
2023-03-18T08:37:22.713Z,19.60
2023-03-18T08:39:54.576Z,21.10
2023-03-18T08:42:21.905Z,17.50
2023-03-18T08:44:49.996Z,16.60
2023-03-18T08:47:16.874Z,17.80
2023-03-18T08:49:43.782Z,16.20
2023-03-18T08:52:10.696Z,18.30
2023-03-18T08:54:37.489Z,15.50
2023-03-18T08:57:04.570Z,14.10
2023-03-18T08:59:31.671Z,14.30
2023-03-18T09:02:16.496Z,13.70
2023-03-18T09:04:50.485Z,14.70
2023-03-18T09:07:19.285Z,14.80
2023-03-18T09:10:37.201Z,17.00
2023-03-18T09:13:05.594Z,13.20
2023-03-18T09:15:32.594Z,16.50
2023-03-18T09:18:10.779Z,18.00
2023-03-18T09:20:39.734Z,11.30
2023-03-18T09:23:08.018Z,14.40
2023-03-18T09:25:35.706Z,12.10
2023-03-18T09:28:06.594Z,9.60
2023-03-18T09:30:34.379Z,16.50
2023-03-18T09:33:02.058Z,7.80
2023-03-18T09:35:29.313Z,9.30
2023-03-18T09:37:56.505Z,6.10
2023-03-18T09:40:32.748Z,7.00
2023-03-18T09:42:59.475Z,6.10
2023-03-18T09:45:51.886Z,6.10
2023-03-18T09:48:53.930Z,7.20
2023-03-18T09:51:50.326Z,7.00
2023-03-18T09:54:33.241Z,9.30
2023-03-18T09:57:01.190Z,6.10
2023-03-18T09:59:40.528Z,5.40
2023-03-18T10:02:48.454Z,7.00
2023-03-18T10:05:19.880Z,4.20
2023-03-18T10:07:50.070Z,3.70
2023-03-18T10:10:42.427Z,3.80
2023-03-18T10:15:56.852Z,4.40
2023-03-18T10:18:33.997Z,4.60
2023-03-18T10:21:21.986Z,4.80
2023-03-18T10:23:57.888Z,4.00
2023-03-18T10:26:30.749Z,5.00
2023-03-18T10:29:08.739Z,5.60
2023-03-18T10:32:03.780Z,4.80
2023-03-18T10:34:40.689Z,5.40
2023-03-18T10:37:13.055Z,3.90
2023-03-18T10:39:41.924Z,3.70
2023-03-18T10:42:30.622Z,4.40
2023-03-18T10:45:28.316Z,4.90
2023-03-18T10:48:06.239Z,3.20
2023-03-18T10:50:42.549Z,4.50
2023-03-18T10:53:23.457Z,3.80
2023-03-18T10:56:07.054Z,3.40
2023-03-18T10:58:34.608Z,3.80
2023-03-18T11:01:01.589Z,3.70
2023-03-18T11:03:33.137Z,4.00
2023-03-18T11:06:04.606Z,5.80
2023-03-18T11:08:40.172Z,4.40
2023-03-18T11:11:34.833Z,4.00
2023-03-18T11:14:07.121Z,6.00
2023-03-18T11:16:42.671Z,4.80
2023-03-18T11:19:33.507Z,4.60
2023-03-18T11:22:02.235Z,4.70
2023-03-18T11:24:45.001Z,5.40
2023-03-18T11:27:14.425Z,5.70
2023-03-18T11:29:46.794Z,3.80
2023-03-18T11:32:31.687Z,4.00
2023-03-18T11:35:03.765Z,2.90
2023-03-18T11:37:41.759Z,3.80
2023-03-18T11:40:14.615Z,3.50
2023-03-18T11:42:42.721Z,3.50
2023-03-18T11:45:21.611Z,4.60
2023-03-18T11:47:48.643Z,2.70
2023-03-18T11:50:25.735Z,3.60
2023-03-18T11:53:05.881Z,3.50
2023-03-18T11:55:45.788Z,2.60
2023-03-18T11:58:46.807Z,3.90
2023-03-18T12:01:21.919Z,3.00
2023-03-18T12:04:14.595Z,3.10
2023-03-18T12:09:34.934Z,3.50
2023-03-18T12:12:28.368Z,5.70
2023-03-18T12:15:12.464Z,3.50
2023-03-18T12:18:06.778Z,3.20
2023-03-18T12:20:57.228Z,3.10
2023-03-18T12:24:01.583Z,3.90
2023-03-18T12:26:34.735Z,3.90
2023-03-18T12:29:07.546Z,3.40
2023-03-18T12:31:48.906Z,4.20
2023-03-18T12:34:54.180Z,5.20
2023-03-18T12:37:35.840Z,3.10
2023-03-18T12:40:34.421Z,3.20
2023-03-18T12:43:21.024Z,3.00
2023-03-18T12:45:53.668Z,4.10
2023-03-18T12:48:43.812Z,5.10
2023-03-18T12:51:21.604Z,3.50
2023-03-18T12:53:56.308Z,3.00
2023-03-18T12:56:27.696Z,3.40
2023-03-18T12:59:06.527Z,3.40
2023-03-18T13:01:47.764Z,4.30
2023-03-18T13:04:29.928Z,2.40
2023-03-18T13:07:03.507Z,2.20
2023-03-18T13:09:53.475Z,5.80
2023-03-18T13:12:20.480Z,2.70
2023-03-18T13:14:56.534Z,3.20
2023-03-18T13:17:40.196Z,3.50
2023-03-18T13:20:21.649Z,9.30
2023-03-18T13:23:04.082Z,4.80
2023-03-18T13:25:37.021Z,4.40
2023-03-18T13:28:29.387Z,3.50
2023-03-18T13:31:06.318Z,4.50
2023-03-18T13:33:47.612Z,3.20
2023-03-18T13:37:11.332Z,3.40
2023-03-18T13:40:05.864Z,3.90
2023-03-18T13:42:38.682Z,3.70
2023-03-18T13:45:30.587Z,5.90
2023-03-18T13:48:00.636Z,3.30
2023-03-18T13:50:34.156Z,3.10
2023-03-18T13:53:03.351Z,3.60
2023-03-18T13:55:47.603Z,5.40
2023-03-18T13:58:37.090Z,3.50
2023-03-18T14:01:32.863Z,3.10
2023-03-18T14:04:22.320Z,2.80
2023-03-18T14:06:56.928Z,2.80
2023-03-18T14:09:34.095Z,2.30
2023-03-18T14:12:25.134Z,3.70
2023-03-18T14:14:53.006Z,2.90
2023-03-18T14:17:32.310Z,2.80
2023-03-18T14:20:07.205Z,4.30
2023-03-18T14:22:36.791Z,3.60
2023-03-18T14:25:10.135Z,2.90
2023-03-18T14:27:47.447Z,2.70
2023-03-18T14:30:35.036Z,3.90
2023-03-18T14:33:06.187Z,3.50
2023-03-18T14:35:52.338Z,3.00
2023-03-18T14:38:35.119Z,2.30
2023-03-18T14:41:04.382Z,3.10
2023-03-18T14:44:06.606Z,5.00
2023-03-18T14:46:39.335Z,3.40
2023-03-18T14:49:32.503Z,3.50
2023-03-18T14:52:02.042Z,3.50
2023-03-18T14:54:35.908Z,4.00
2023-03-18T14:57:04.464Z,2.90
2023-03-18T14:59:31.699Z,4.10
2023-03-18T15:01:58.667Z,3.60
2023-03-18T15:04:28.121Z,3.30
2023-03-18T15:07:00.641Z,2.10
2023-03-18T15:09:30.071Z,2.60
2023-03-18T15:11:57.998Z,2.80
2023-03-18T15:14:27.806Z,2.30
2023-03-18T15:17:03.812Z,3.30
2023-03-18T15:19:32.631Z,3.50
2023-03-18T15:22:04.688Z,3.90
2023-03-18T15:24:32.851Z,9.50
2023-03-18T15:27:05.726Z,3.60
2023-03-18T15:29:37.401Z,3.10
2023-03-18T15:32:26.018Z,3.40
2023-03-18T15:35:11.998Z,3.20
2023-03-18T15:37:42.074Z,3.20
2023-03-18T15:40:24.098Z,4.50
2023-03-18T15:42:54.987Z,4.20
2023-03-18T15:45:27.369Z,2.70
2023-03-18T15:47:54.377Z,3.10
2023-03-18T15:50:33.956Z,5.40
2023-03-18T15:53:05.197Z,9.90
2023-03-18T15:55:47.493Z,3.50
2023-03-18T15:58:27.743Z,5.50
2023-03-18T16:00:56.592Z,4.80
2023-03-18T16:03:26.313Z,4.00
2023-03-18T16:05:53.765Z,4.40
2023-03-18T16:08:22.851Z,4.50
2023-03-18T16:10:52.704Z,4.10
2023-03-18T16:13:25.900Z,5.90
2023-03-18T16:15:54.026Z,3.90
2023-03-18T16:18:21.396Z,7.10
2023-03-18T16:20:49.427Z,6.50
2023-03-18T16:23:17.635Z,6.00
2023-03-18T16:25:52.970Z,5.20
2023-03-18T16:28:25.154Z,4.70
2023-03-18T16:30:53.556Z,5.10
2023-03-18T16:33:21.145Z,6.70
2023-03-18T16:35:54.723Z,4.60
2023-03-18T16:38:25.810Z,5.10
2023-03-18T16:40:54.833Z,5.70
2023-03-18T16:43:24.524Z,6.20
2023-03-18T16:45:52.554Z,6.30
2023-03-18T16:48:22.019Z,6.40
2023-03-18T16:50:51.323Z,6.40
2023-03-18T16:53:22.184Z,9.20
2023-03-18T16:55:52.762Z,5.90
2023-03-18T16:58:26.696Z,6.90
2023-03-18T17:00:55.862Z,8.00
2023-03-18T17:03:23.020Z,6.80
2023-03-18T17:05:50.753Z,7.90
2023-03-18T17:08:22.540Z,7.90
2023-03-18T17:10:52.576Z,8.70
2023-03-18T17:13:23.132Z,9.80
2023-03-18T17:15:51.231Z,7.40
2023-03-18T17:18:21.352Z,7.30
2023-03-18T17:20:49.010Z,10.90
2023-03-18T17:23:18.505Z,12.00
2023-03-18T17:25:52.375Z,7.70
2023-03-18T17:28:28.355Z,11.30
2023-03-18T17:30:56.480Z,10.80
2023-03-18T17:33:24.772Z,29.10
2023-03-18T17:35:52.469Z,10.10
2023-03-18T17:38:20.037Z,12.40
2023-03-18T17:40:48.277Z,11.00
2023-03-18T17:43:27.703Z,13.70
2023-03-18T17:45:56.878Z,14.50
2023-03-18T17:48:34.733Z,6.00
2023-03-18T17:51:06.940Z,8.00
2023-03-18T17:53:38.922Z,7.90
2023-03-18T17:56:09.865Z,5.70
2023-03-18T17:58:37.011Z,7.20
2023-03-18T18:01:14.004Z,4.20
2023-03-18T18:03:40.925Z,4.90
2023-03-18T18:06:15.563Z,4.60
2023-03-18T18:08:42.727Z,5.80
2023-03-18T18:11:23.962Z,4.90
2023-03-18T18:13:53.901Z,5.70
2023-03-18T18:16:21.653Z,5.70
2023-03-18T18:18:50.037Z,8.50
2023-03-18T18:21:23.731Z,7.80
2023-03-18T18:23:50.563Z,7.40
2023-03-18T18:26:19.916Z,6.50
2023-03-18T18:28:50.312Z,7.40
2023-03-18T18:31:19.505Z,9.00
2023-03-18T18:33:49.730Z,9.90
2023-03-18T18:36:18.035Z,6.90
2023-03-18T18:38:45.535Z,6.50
2023-03-18T18:41:12.640Z,5.70
2023-03-18T18:43:39.493Z,6.90
2023-03-18T18:46:13.928Z,7.10
2023-03-18T18:48:41.178Z,6.00
2023-03-18T18:51:15.899Z,9.30
2023-03-18T18:53:43.610Z,6.20
2023-03-18T18:56:18.618Z,5.70
2023-03-18T18:58:46.985Z,6.10
2023-03-18T19:01:14.995Z,6.30
2023-03-18T19:03:42.108Z,6.10
2023-03-18T19:06:25.655Z,6.20
2023-03-18T19:08:54.659Z,5.90
2023-03-18T19:11:21.473Z,7.80
2023-03-18T19:13:49.087Z,7.40
2023-03-18T19:16:36.584Z,7.20
2023-03-18T19:19:03.389Z,8.20
2023-03-18T19:21:30.144Z,12.10
2023-03-18T19:23:58.323Z,10.50
2023-03-18T19:26:26.049Z,8.80
2023-03-18T19:28:59.235Z,7.50
2023-03-18T19:31:30.755Z,10.20
2023-03-18T19:33:59.923Z,7.20
2023-03-18T19:36:41.001Z,9.00
2023-03-18T19:39:14.711Z,9.00
2023-03-18T19:41:42.229Z,9.90
2023-03-18T19:44:23.136Z,9.10
2023-03-18T19:46:53.151Z,9.70
2023-03-18T19:49:30.012Z,9.70
2023-03-18T19:51:57.159Z,11.60
2023-03-18T19:54:28.438Z,13.50
2023-03-18T19:56:57.517Z,12.50
2023-03-18T19:59:33.569Z,12.10
2023-03-18T20:02:05.100Z,15.60
2023-03-18T20:04:32.007Z,12.60
2023-03-18T20:06:58.807Z,10.70
2023-03-18T20:09:25.698Z,13.80
2023-03-18T20:12:04.406Z,11.70
2023-03-18T20:14:38.294Z,11.10
2023-03-18T20:17:23.448Z,15.40
2023-03-18T20:19:50.484Z,10.60
2023-03-18T20:22:27.089Z,12.70
2023-03-18T20:24:54.591Z,15.80
2023-03-18T20:27:22.272Z,15.70
2023-03-18T20:29:49.248Z,14.40
2023-03-18T20:32:16.048Z,16.50
2023-03-18T20:34:43.976Z,13.00
2023-03-18T20:37:18.538Z,16.60
2023-03-18T20:39:45.922Z,16.80
2023-03-18T20:42:17.400Z,17.90
2023-03-18T20:44:45.426Z,14.10
2023-03-18T20:47:13.604Z,19.80
2023-03-18T20:49:41.316Z,47.80
2023-03-18T20:52:29.448Z,51.00
2023-03-18T20:54:57.083Z,29.60
2023-03-18T20:57:24.525Z,34.30
2023-03-18T20:59:51.749Z,24.90
2023-03-18T21:02:32.815Z,22.80
2023-03-18T21:05:01.637Z,20.10
2023-03-18T21:07:28.990Z,19.30
2023-03-18T21:09:56.112Z,21.30
2023-03-18T21:12:24.120Z,23.00
2023-03-18T21:14:51.200Z,24.50
2023-03-18T21:17:20.557Z,22.70
2023-03-18T21:19:48.812Z,31.00
2023-03-18T21:22:21.565Z,31.70
2023-03-18T21:24:49.420Z,44.80
2023-03-18T21:27:24.997Z,44.90
2023-03-18T21:29:53.000Z,57.60
2023-03-18T21:32:27.236Z,58.30
2023-03-18T21:34:54.867Z,60.00
2023-03-18T21:37:23.889Z,50.20
2023-03-18T21:39:51.608Z,45.50
2023-03-18T21:42:32.780Z,53.20
2023-03-18T21:44:59.875Z,52.10
2023-03-18T21:47:27.386Z,56.90
2023-03-18T21:49:54.149Z,52.20
2023-03-18T21:52:34.956Z,43.50
2023-03-18T21:55:04.185Z,46.80
2023-03-18T21:57:31.061Z,49.70
2023-03-18T21:59:57.913Z,51.60
2023-03-18T22:02:27.652Z,49.60
2023-03-18T22:04:58.998Z,63.20
2023-03-18T22:07:30.352Z,50.00
2023-03-18T22:09:57.998Z,54.70
2023-03-18T22:12:27.329Z,71.70
2023-03-18T22:14:55.201Z,68.70
2023-03-18T22:17:27.725Z,56.80
2023-03-18T22:22:25.691Z,50.70
2023-03-18T22:24:52.844Z,45.50
2023-03-18T22:27:27.752Z,48.80
2023-03-18T22:29:56.631Z,46.70
2023-03-18T22:32:35.442Z,51.40
2023-03-18T22:35:03.440Z,48.80
2023-03-18T22:37:30.278Z,57.00
2023-03-18T22:39:59.211Z,45.40
2023-03-18T22:42:27.976Z,42.90
2023-03-18T22:44:54.813Z,46.10
2023-03-18T22:47:23.985Z,43.30
2023-03-18T22:49:51.211Z,44.10
2023-03-18T22:52:22.800Z,42.10
2023-03-18T22:54:56.174Z,45.50
2023-03-18T22:57:26.565Z,38.50
2023-03-18T22:59:54.490Z,38.20
2023-03-18T23:02:25.332Z,38.00
2023-03-18T23:04:52.939Z,32.20
2023-03-18T23:07:29.439Z,38.40
2023-03-18T23:09:58.186Z,32.10
2023-03-18T23:12:26.921Z,41.10
2023-03-18T23:14:54.469Z,38.20
2023-03-18T23:17:24.547Z,32.80
2023-03-18T23:19:53.305Z,33.40
2023-03-18T23:22:26.284Z,36.50
2023-03-18T23:24:53.131Z,30.10
2023-03-18T23:27:21.187Z,26.50
2023-03-18T23:29:48.811Z,28.20
2023-03-18T23:32:16.989Z,28.80
2023-03-18T23:34:44.811Z,35.00
2023-03-18T23:37:12.245Z,33.60
2023-03-18T23:39:43.313Z,32.60
2023-03-18T23:42:11.733Z,34.10
2023-03-18T23:44:39.133Z,34.40
2023-03-18T23:47:07.503Z,32.40
2023-03-18T23:49:34.596Z,27.30
2023-03-18T23:52:04.289Z,28.80
2023-03-18T23:54:31.488Z,32.50
2023-03-18T23:56:58.265Z,29.90
2023-03-18T23:59:25.056Z,33.30
